createdAt,value
2017-11-18T00:00:10.200Z,88.54
2017-11-18T00:01:12.012Z,88.54
2017-11-18T00:02:13.886Z,88.87
2017-11-18T00:03:15.970Z,88.82
2017-11-18T00:04:17.849Z,88.78
2017-11-18T00:05:32.044Z,88.68
2017-11-18T00:06:33.917Z,89.73
2017-11-18T00:07:35.794Z,88.92
2017-11-18T00:08:37.669Z,89.63
2017-11-18T00:09:39.484Z,90.01
2017-11-18T00:10:41.292Z,90.01
2017-11-18T00:11:43.168Z,90.11
2017-11-18T00:12:45.043Z,90.11
2017-11-18T00:13:46.918Z,90.30
2017-11-18T00:15:01.065Z,90.44
2017-11-18T00:16:02.944Z,89.73
2017-11-18T00:17:04.815Z,89.82
2017-11-18T00:18:06.693Z,89.63
2017-11-18T00:19:08.502Z,89.54
2017-11-18T00:20:10.315Z,89.49
2017-11-18T00:21:12.220Z,88.78
2017-11-18T00:22:14.063Z,89.20
2017-11-18T00:23:15.936Z,89.44
2017-11-18T00:24:30.085Z,88.73
2017-11-18T00:25:31.954Z,88.78
2017-11-18T00:26:33.831Z,88.78
2017-11-18T00:27:35.711Z,88.97
2017-11-18T00:28:37.525Z,89.63
2017-11-18T00:29:39.330Z,90.30
2017-11-18T00:30:41.210Z,90.39
2017-11-18T00:31:43.086Z,90.58
2017-11-18T00:32:44.971Z,90.96
2017-11-18T00:33:59.114Z,90.96
2017-11-18T00:35:00.990Z,90.58
2017-11-18T00:36:02.876Z,90.67
2017-11-18T00:37:04.754Z,90.67
2017-11-18T00:38:06.562Z,90.20
2017-11-18T00:39:08.373Z,89.92
2017-11-18T00:40:10.250Z,89.92
2017-11-18T00:41:12.122Z,90.01
2017-11-18T00:42:14.008Z,90.39
2017-11-18T00:43:28.150Z,90.01
2017-11-18T00:44:30.036Z,89.16
2017-11-18T00:45:31.901Z,89.16
2017-11-18T00:46:33.780Z,89.35
2017-11-18T00:47:35.588Z,89.54
2017-11-18T00:48:37.410Z,89.35
2017-11-18T00:49:39.281Z,88.97
2017-11-18T00:50:41.158Z,89.25
2017-11-18T00:51:43.031Z,88.97
2017-11-18T00:52:57.160Z,89.06
2017-11-18T00:53:59.034Z,89.54
2017-11-18T00:55:00.910Z,89.54
2017-11-18T00:56:02.790Z,89.16
2017-11-18T00:57:04.596Z,89.44
2017-11-18T00:58:06.407Z,89.16
2017-11-18T00:59:08.294Z,89.16
2017-11-18T01:00:10.161Z,89.16
2017-11-18T01:01:12.033Z,89.44
2017-11-18T01:02:26.178Z,89.16
2017-11-18T01:03:28.051Z,89.54
2017-11-18T01:04:29.924Z,88.87
2017-11-18T01:05:31.799Z,88.97
2017-11-18T01:06:33.610Z,88.78
2017-11-18T01:07:35.418Z,88.49
2017-11-18T01:08:37.290Z,88.49
2017-11-18T01:09:39.165Z,88.21
2017-11-18T01:10:41.036Z,88.02
2017-11-18T01:11:55.183Z,88.12
2017-11-18T01:12:57.056Z,88.21
2017-11-18T01:13:58.942Z,88.02
2017-11-18T01:15:00.811Z,87.84
2017-11-18T01:16:02.621Z,87.84
2017-11-18T01:17:04.436Z,87.93
2017-11-18T01:18:06.313Z,88.12
2017-11-18T01:19:08.185Z,87.74
2017-11-18T01:20:10.058Z,88.02
2017-11-18T01:21:24.202Z,87.93
2017-11-18T01:22:26.077Z,87.93
2017-11-18T01:23:27.951Z,87.93
2017-11-18T01:24:29.825Z,87.93
2017-11-18T01:25:31.637Z,88.12
2017-11-18T01:26:33.458Z,87.93
2017-11-18T01:27:35.333Z,87.84
2017-11-18T01:28:37.200Z,87.93
2017-11-18T01:29:39.074Z,88.02
2017-11-18T01:30:53.215Z,88.31
2017-11-18T01:31:55.087Z,88.31
2017-11-18T01:32:56.961Z,88.12
2017-11-18T01:33:58.834Z,88.21
2017-11-18T01:35:00.644Z,88.12
2017-11-18T01:36:02.457Z,88.40
2017-11-18T01:37:04.329Z,88.40
2017-11-18T01:38:06.204Z,88.40
2017-11-18T01:39:08.077Z,88.21
2017-11-18T01:40:22.220Z,88.40
2017-11-18T01:41:24.092Z,88.21
2017-11-18T01:42:25.971Z,88.12
2017-11-18T01:43:27.840Z,88.78
2017-11-18T01:44:29.651Z,88.40
2017-11-18T01:45:31.477Z,88.68
2017-11-18T01:46:33.337Z,88.02
2017-11-18T01:47:35.210Z,88.40
2017-11-18T01:48:37.082Z,88.59
2017-11-18T01:49:51.234Z,88.49
2017-11-18T01:50:53.098Z,88.59
2017-11-18T01:51:54.972Z,88.02
2017-11-18T01:52:56.850Z,88.68
2017-11-18T01:53:58.656Z,88.87
2017-11-18T01:55:00.468Z,88.97
2017-11-18T01:56:02.341Z,89.06
2017-11-18T01:57:04.215Z,88.78
2017-11-18T01:58:06.086Z,88.49
2017-11-18T01:59:20.231Z,88.12
2017-11-18T02:00:22.102Z,88.02
2017-11-18T02:01:23.977Z,88.21
2017-11-18T02:02:25.850Z,88.02
2017-11-18T02:03:27.659Z,87.93
2017-11-18T02:04:29.473Z,87.27
2017-11-18T02:05:31.346Z,87.36
2017-11-18T02:06:33.216Z,87.17
2017-11-18T02:07:35.088Z,87.08
2017-11-18T02:08:49.240Z,87.27
2017-11-18T02:09:51.109Z,87.36
2017-11-18T02:10:52.983Z,87.55
2017-11-18T02:11:54.858Z,87.46
2017-11-18T02:12:56.667Z,87.36
2017-11-18T02:13:58.477Z,87.27
2017-11-18T02:15:00.354Z,87.46
2017-11-18T02:16:02.225Z,87.36
2017-11-18T02:17:04.100Z,87.36
2017-11-18T02:18:18.243Z,87.36
2017-11-18T02:19:20.116Z,87.36
2017-11-18T02:20:21.999Z,87.27
2017-11-18T02:21:23.867Z,87.55
2017-11-18T02:22:25.677Z,87.27
2017-11-18T02:23:27.489Z,86.98
2017-11-18T02:24:29.360Z,86.75
2017-11-18T02:25:31.243Z,87.27
2017-11-18T02:26:33.117Z,86.75
2017-11-18T02:27:47.257Z,87.17
2017-11-18T02:28:49.134Z,86.75
2017-11-18T02:29:51.015Z,86.66
2017-11-18T02:30:52.884Z,86.37
2017-11-18T02:31:54.695Z,86.56
2017-11-18T02:32:56.506Z,86.37
2017-11-18T02:33:58.387Z,86.75
2017-11-18T02:35:00.261Z,86.56
2017-11-18T02:36:02.137Z,86.75
2017-11-18T02:37:16.291Z,86.75
2017-11-18T02:38:18.161Z,86.18
2017-11-18T02:39:20.046Z,86.18
2017-11-18T02:40:21.911Z,86.75
2017-11-18T02:41:23.723Z,86.75
2017-11-18T02:42:25.525Z,86.47
2017-11-18T02:43:27.403Z,86.37
2017-11-18T02:44:29.278Z,86.66
2017-11-18T02:45:31.155Z,86.66
2017-11-18T02:46:45.300Z,86.66
2017-11-18T02:47:47.179Z,87.04
2017-11-18T02:48:49.057Z,86.75
2017-11-18T02:49:50.926Z,86.85
2017-11-18T02:50:52.737Z,86.94
2017-11-18T02:51:54.546Z,86.66
2017-11-18T02:52:56.422Z,86.66
2017-11-18T02:53:58.307Z,87.13
2017-11-18T02:55:00.172Z,86.94
2017-11-18T02:56:14.316Z,87.23
2017-11-18T02:57:16.194Z,87.70
2017-11-18T02:58:18.074Z,87.88
2017-11-18T02:59:19.949Z,88.45
2017-11-18T03:00:21.759Z,89.40
2017-11-18T03:01:23.573Z,89.69
2017-11-18T03:02:25.451Z,90.82
2017-11-18T03:03:27.331Z,92.00
2017-11-18T03:04:29.204Z,93.04
2017-11-18T03:05:43.351Z,93.42
2017-11-18T03:06:45.225Z,93.70
2017-11-18T03:07:47.104Z,94.13
2017-11-18T03:08:48.979Z,93.66
2017-11-18T03:09:50.794Z,92.99
2017-11-18T03:10:52.604Z,93.09
2017-11-18T03:11:54.485Z,92.61
2017-11-18T03:12:56.371Z,91.86
2017-11-18T03:13:58.237Z,91.39
2017-11-18T03:15:12.385Z,91.39
2017-11-18T03:16:14.261Z,91.01
2017-11-18T03:17:16.136Z,90.91
2017-11-18T03:18:18.011Z,90.44
2017-11-18T03:19:19.821Z,91.01
2017-11-18T03:20:21.631Z,90.44
2017-11-18T03:21:23.512Z,89.87
2017-11-18T03:22:25.384Z,90.06
2017-11-18T03:23:27.264Z,89.87
2017-11-18T03:24:41.411Z,89.31
2017-11-18T03:25:43.289Z,88.74
2017-11-18T03:26:45.167Z,89.59
2017-11-18T03:27:47.039Z,88.83
2017-11-18T03:28:48.850Z,88.87
2017-11-18T03:29:50.664Z,87.98
2017-11-18T03:30:52.546Z,88.02
2017-11-18T03:31:54.427Z,88.26
2017-11-18T03:32:56.296Z,87.88
2017-11-18T03:34:10.491Z,88.21
2017-11-18T03:35:12.368Z,88.31
2017-11-18T03:36:14.242Z,88.02
2017-11-18T03:37:16.115Z,88.31
2017-11-18T03:38:17.925Z,88.21
2017-11-18T03:39:19.736Z,87.93
2017-11-18T03:40:21.617Z,87.84
2017-11-18T03:41:23.490Z,88.31
2017-11-18T03:42:25.367Z,88.87
2017-11-18T03:43:39.522Z,89.63
2017-11-18T03:44:41.391Z,89.54
2017-11-18T03:45:43.267Z,89.63
2017-11-18T03:46:45.138Z,89.54
2017-11-18T03:47:46.949Z,89.54
2017-11-18T03:48:48.759Z,89.44
2017-11-18T03:49:50.637Z,89.16
2017-11-18T03:50:52.512Z,89.63
2017-11-18T03:51:54.386Z,89.16
2017-11-18T03:53:08.534Z,88.87
2017-11-18T03:54:10.409Z,88.92
2017-11-18T03:55:12.284Z,88.54
2017-11-18T03:56:14.156Z,88.54
2017-11-18T03:57:15.967Z,88.73
2017-11-18T03:58:17.776Z,88.26
2017-11-18T03:59:19.656Z,88.26
2017-11-18T04:00:21.529Z,88.26
2017-11-18T04:01:23.407Z,88.07
2017-11-18T04:02:37.556Z,88.17
2017-11-18T04:03:39.429Z,88.26
2017-11-18T04:04:41.306Z,88.17
2017-11-18T04:05:43.183Z,88.26
2017-11-18T04:06:44.990Z,87.69
2017-11-18T04:07:46.812Z,87.59
2017-11-18T04:08:48.692Z,87.40
2017-11-18T04:09:50.573Z,87.69
2017-11-18T04:10:52.443Z,87.59
2017-11-18T04:12:06.589Z,88.26
2017-11-18T04:13:08.466Z,87.59
2017-11-18T04:14:10.346Z,87.50
2017-11-18T04:15:12.219Z,87.69
2017-11-18T04:16:14.032Z,88.07
2017-11-18T04:17:15.840Z,88.45
2017-11-18T04:18:17.718Z,88.17
2017-11-18T04:19:19.602Z,88.64
2017-11-18T04:20:21.477Z,89.11
2017-11-18T04:21:35.672Z,89.49
2017-11-18T04:22:37.553Z,89.68
2017-11-18T04:23:39.426Z,89.96
2017-11-18T04:24:41.302Z,90.01
2017-11-18T04:25:43.113Z,89.72
2017-11-18T04:26:44.926Z,89.53
2017-11-18T04:27:46.810Z,89.58
2017-11-18T04:28:48.688Z,89.25
2017-11-18T04:29:50.563Z,89.53
2017-11-18T04:31:04.760Z,88.64
2017-11-18T04:32:06.637Z,88.59
2017-11-18T04:33:08.515Z,89.15
2017-11-18T04:34:10.390Z,88.49
2017-11-18T04:35:12.202Z,88.45
2017-11-18T04:36:14.014Z,87.78
2017-11-18T04:37:15.893Z,87.88
2017-11-18T04:38:17.768Z,87.02
2017-11-18T04:39:19.650Z,87.21
2017-11-18T04:40:33.815Z,87.31
2017-11-18T04:41:35.676Z,87.50
2017-11-18T04:42:37.551Z,87.31
2017-11-18T04:43:39.426Z,87.69
2017-11-18T04:44:41.237Z,88.31
2017-11-18T04:45:43.046Z,89.06
2017-11-18T04:46:44.929Z,89.73
2017-11-18T04:47:46.800Z,89.44
2017-11-18T04:48:48.717Z,89.73
2017-11-18T04:50:02.827Z,89.63
2017-11-18T04:51:04.705Z,89.73
2017-11-18T04:52:06.577Z,89.73
2017-11-18T04:53:08.454Z,89.35
2017-11-18T04:54:10.259Z,89.54
2017-11-18T04:55:12.071Z,89.44
2017-11-18T04:56:13.951Z,89.25
2017-11-18T04:57:15.825Z,89.82
2017-11-18T04:58:17.660Z,89.92
2017-11-18T04:59:31.807Z,89.16
2017-11-18T05:00:33.682Z,88.97
2017-11-18T05:01:35.561Z,89.16
2017-11-18T05:02:37.434Z,89.44
2017-11-18T05:03:39.246Z,89.73
2017-11-18T05:04:41.058Z,89.39
2017-11-18T05:05:42.938Z,89.25
2017-11-18T05:06:44.812Z,88.92
2017-11-18T05:07:46.687Z,88.97
2017-11-18T05:09:00.882Z,88.64
2017-11-18T05:10:02.765Z,88.49
2017-11-18T05:11:04.635Z,88.78
2017-11-18T05:12:06.508Z,88.73
2017-11-18T05:13:08.319Z,89.30
2017-11-18T05:14:10.130Z,89.30
2017-11-18T05:15:12.009Z,89.77
2017-11-18T05:16:13.887Z,89.11
2017-11-18T05:17:15.767Z,89.39
2017-11-18T05:18:29.915Z,88.92
2017-11-18T05:19:31.790Z,88.73
2017-11-18T05:20:33.668Z,88.92
2017-11-18T05:21:35.540Z,88.82
2017-11-18T05:22:37.352Z,88.54
2017-11-18T05:23:39.160Z,88.35
2017-11-18T05:24:41.044Z,88.45
2017-11-18T05:25:42.918Z,88.35
2017-11-18T05:26:44.793Z,88.54
2017-11-18T05:27:58.943Z,88.35
2017-11-18T05:29:00.818Z,87.98
2017-11-18T05:30:02.696Z,88.26
2017-11-18T05:31:04.569Z,87.88
2017-11-18T05:32:06.380Z,88.07
2017-11-18T05:33:08.190Z,88.07
2017-11-18T05:34:10.069Z,88.35
2017-11-18T05:35:11.943Z,88.45
2017-11-18T05:36:13.821Z,88.17
2017-11-18T05:37:27.969Z,88.26
2017-11-18T05:38:29.848Z,88.92
2017-11-18T05:39:31.722Z,88.73
2017-11-18T05:40:33.597Z,88.92
2017-11-18T05:41:35.412Z,89.01
2017-11-18T05:42:37.223Z,88.73
2017-11-18T05:43:39.103Z,89.01
2017-11-18T05:44:40.985Z,88.92
2017-11-18T05:45:42.859Z,88.64
2017-11-18T05:46:57.005Z,88.35
2017-11-18T05:47:58.883Z,88.54
2017-11-18T05:49:00.759Z,88.26
2017-11-18T05:50:02.633Z,88.26
2017-11-18T05:51:04.442Z,88.17
2017-11-18T05:52:06.252Z,88.45
2017-11-18T05:53:08.130Z,88.45
2017-11-18T05:54:10.006Z,88.26
2017-11-18T05:55:11.885Z,88.73
2017-11-18T05:56:26.081Z,88.82
2017-11-18T05:57:27.958Z,88.92
2017-11-18T05:58:29.837Z,88.82
2017-11-18T05:59:31.707Z,89.39
2017-11-18T06:00:33.520Z,89.39
2017-11-18T06:01:35.335Z,88.73
2017-11-18T06:02:37.213Z,89.15
2017-11-18T06:03:39.091Z,88.87
2017-11-18T06:04:40.970Z,88.78
2017-11-18T06:05:55.120Z,88.87
2017-11-18T06:06:56.996Z,88.49
2017-11-18T06:07:58.875Z,88.49
2017-11-18T06:09:00.750Z,88.30
2017-11-18T06:10:02.560Z,88.11
2017-11-18T06:11:04.377Z,88.11
2017-11-18T06:12:06.253Z,88.49
2017-11-18T06:13:08.134Z,88.11
2017-11-18T06:14:10.019Z,88.21
2017-11-18T06:15:24.165Z,88.30
2017-11-18T06:16:26.042Z,87.92
2017-11-18T06:17:27.925Z,88.40
2017-11-18T06:18:29.801Z,87.92
2017-11-18T06:19:31.613Z,88.02
2017-11-18T06:20:33.426Z,88.35
2017-11-18T06:21:35.309Z,88.49
2017-11-18T06:22:37.189Z,89.01
2017-11-18T06:23:39.068Z,89.06
2017-11-18T06:24:53.221Z,88.64
2017-11-18T06:25:55.101Z,88.92
2017-11-18T06:26:56.981Z,88.82
2017-11-18T06:27:58.859Z,88.64
2017-11-18T06:29:00.678Z,88.92
2017-11-18T06:30:02.486Z,89.49
2017-11-18T06:31:04.364Z,89.39
2017-11-18T06:32:06.243Z,88.45
2017-11-18T06:33:08.122Z,89.34
2017-11-18T06:34:22.271Z,89.15
2017-11-18T06:35:24.151Z,88.59
2017-11-18T06:36:26.033Z,88.49
2017-11-18T06:37:27.909Z,88.40
2017-11-18T06:38:29.736Z,88.49
2017-11-18T06:39:31.556Z,88.11
2017-11-18T06:40:33.434Z,88.30
2017-11-18T06:41:35.309Z,88.21
2017-11-18T06:42:37.189Z,88.30
2017-11-18T06:43:51.341Z,88.02
2017-11-18T06:44:53.221Z,87.92
2017-11-18T06:45:55.103Z,88.02
2017-11-18T06:46:56.981Z,88.40
2017-11-18T06:47:58.796Z,88.11
2017-11-18T06:49:00.610Z,87.54
2017-11-18T06:50:02.487Z,87.73
2017-11-18T06:51:04.367Z,87.64
2017-11-18T06:52:06.246Z,87.64
2017-11-18T06:53:20.401Z,87.64
2017-11-18T06:54:22.285Z,87.16
2017-11-18T06:55:24.161Z,87.45
2017-11-18T06:56:26.042Z,87.35
2017-11-18T06:57:27.855Z,87.26
2017-11-18T06:58:29.667Z,86.98
2017-11-18T06:59:31.550Z,86.60
2017-11-18T07:00:33.431Z,86.69
2017-11-18T07:01:35.310Z,86.60
2017-11-18T07:02:49.465Z,86.50
2017-11-18T07:03:51.346Z,87.07
2017-11-18T07:04:53.228Z,87.45
2017-11-18T07:05:55.109Z,87.07
2017-11-18T07:06:56.925Z,86.88
2017-11-18T07:07:58.736Z,86.41
2017-11-18T07:09:00.627Z,86.60
2017-11-18T07:10:02.505Z,86.60
2017-11-18T07:11:04.389Z,86.50
2017-11-18T07:12:18.543Z,86.50
2017-11-18T07:13:20.423Z,86.69
2017-11-18T07:14:22.308Z,86.69
2017-11-18T07:15:24.185Z,86.69
2017-11-18T07:16:26.001Z,87.16
2017-11-18T07:17:27.816Z,86.79
2017-11-18T07:18:29.700Z,87.64
2017-11-18T07:19:31.591Z,87.35
2017-11-18T07:20:33.462Z,87.26
2017-11-18T07:21:47.665Z,87.73
2017-11-18T07:22:49.549Z,86.98
2017-11-18T07:23:51.427Z,87.26
2017-11-18T07:24:53.308Z,87.35
2017-11-18T07:25:55.129Z,87.54
2017-11-18T07:26:56.947Z,88.11
2017-11-18T07:27:58.830Z,88.30
2017-11-18T07:29:00.718Z,88.30
2017-11-18T07:30:02.597Z,88.21
2017-11-18T07:31:16.753Z,87.92
2017-11-18T07:32:18.636Z,88.02
2017-11-18T07:33:20.517Z,88.11
2017-11-18T07:34:22.397Z,88.21
2017-11-18T07:35:24.215Z,88.59
2017-11-18T07:36:26.030Z,88.11
2017-11-18T07:37:27.913Z,88.11
2017-11-18T07:38:29.835Z,88.59
2017-11-18T07:39:31.727Z,88.59
2017-11-18T07:40:45.885Z,88.30
2017-11-18T07:41:47.769Z,88.21
2017-11-18T07:42:49.649Z,88.21
2017-11-18T07:43:51.528Z,88.30
2017-11-18T07:44:53.414Z,88.68
2017-11-18T07:45:55.223Z,88.78
2017-11-18T07:46:57.107Z,88.59
2017-11-18T07:47:58.984Z,88.30
2017-11-18T07:49:00.870Z,88.11
2017-11-18T07:50:15.029Z,88.40
2017-11-18T07:51:16.936Z,88.11
2017-11-18T07:52:18.830Z,88.21
2017-11-18T07:53:20.728Z,88.02
2017-11-18T07:54:22.544Z,88.30
2017-11-18T07:55:24.366Z,88.30
2017-11-18T07:56:26.256Z,87.35
2017-11-18T07:57:28.132Z,87.73
2017-11-18T07:58:30.025Z,88.30
2017-11-18T07:59:44.186Z,88.49
2017-11-18T08:00:46.234Z,88.49
2017-11-18T08:01:48.477Z,88.30
2017-11-18T08:02:50.342Z,88.49
2017-11-18T08:03:52.171Z,88.59
2017-11-18T08:04:53.976Z,88.78
2017-11-18T08:05:55.860Z,88.68
2017-11-18T08:06:57.744Z,89.06
2017-11-18T08:07:59.636Z,88.59
2017-11-18T08:09:13.927Z,88.35
2017-11-18T08:10:15.809Z,88.63
2017-11-18T08:11:17.744Z,88.73
2017-11-18T08:12:19.636Z,88.54
2017-11-18T08:13:21.446Z,88.35
2017-11-18T08:14:23.261Z,88.54
2017-11-18T08:15:25.145Z,88.92
2017-11-18T08:16:27.027Z,89.01
2017-11-18T08:17:29.317Z,88.82
2017-11-18T08:18:43.657Z,89.01
2017-11-18T08:19:45.604Z,88.73
2017-11-18T08:20:47.466Z,89.20
2017-11-18T08:21:49.349Z,89.11
2017-11-18T08:22:51.167Z,89.01
2017-11-18T08:23:52.983Z,88.73
2017-11-18T08:24:54.895Z,89.01
2017-11-18T08:25:56.782Z,89.01
2017-11-18T08:26:58.663Z,89.01
2017-11-18T08:28:12.969Z,88.87
2017-11-18T08:29:14.834Z,88.82
2017-11-18T08:30:16.743Z,89.06
2017-11-18T08:31:18.601Z,88.87
2017-11-18T08:32:20.419Z,88.58
2017-11-18T08:33:22.236Z,88.58
2017-11-18T08:34:24.530Z,88.58
2017-11-18T08:35:26.428Z,88.73
2017-11-18T08:36:28.312Z,88.73
2017-11-18T08:37:42.631Z,89.53
2017-11-18T08:38:44.548Z,88.87
2017-11-18T08:39:46.433Z,89.34
2017-11-18T08:40:48.362Z,88.96
2017-11-18T08:41:50.223Z,88.87
2017-11-18T08:42:52.041Z,88.96
2017-11-18T08:43:53.925Z,88.77
2017-11-18T08:44:55.808Z,88.68
2017-11-18T08:45:57.693Z,88.29
2017-11-18T08:47:11.934Z,88.58
2017-11-18T08:48:13.824Z,88.29
2017-11-18T08:49:15.708Z,88.10
2017-11-18T08:50:17.588Z,88.10
2017-11-18T08:51:19.415Z,88.39
2017-11-18T08:52:21.224Z,87.68
2017-11-18T08:53:23.129Z,87.68
2017-11-18T08:54:25.018Z,87.77
2017-11-18T08:55:26.897Z,87.39
2017-11-18T08:56:41.100Z,87.49
2017-11-18T08:57:42.985Z,87.30
2017-11-18T08:58:44.868Z,87.39
2017-11-18T08:59:46.750Z,87.11
2017-11-18T09:00:48.573Z,86.77
2017-11-18T09:01:50.394Z,86.49
2017-11-18T09:02:52.278Z,86.68
2017-11-18T09:03:54.161Z,86.39
2017-11-18T09:04:56.044Z,85.82
2017-11-18T09:06:10.493Z,85.25
2017-11-18T09:07:12.344Z,85.16
2017-11-18T09:08:14.226Z,84.68
2017-11-18T09:09:16.110Z,84.59
2017-11-18T09:10:18.073Z,84.01
2017-11-18T09:11:20.269Z,83.97
2017-11-18T09:12:22.152Z,83.59
2017-11-18T09:13:24.152Z,83.68
2017-11-18T09:14:26.450Z,82.82
2017-11-18T09:15:40.617Z,82.26
2017-11-18T09:16:42.502Z,82.35
2017-11-18T09:17:44.385Z,82.45
2017-11-18T09:18:46.393Z,81.59
2017-11-18T09:19:48.366Z,81.02
2017-11-18T09:20:50.182Z,80.41
2017-11-18T09:21:52.071Z,81.17
2017-11-18T09:22:53.954Z,81.26
2017-11-18T09:23:55.887Z,80.88
2017-11-18T09:25:10.091Z,81.17
2017-11-18T09:26:11.975Z,81.07
2017-11-18T09:27:13.961Z,81.36
2017-11-18T09:28:15.842Z,81.59
2017-11-18T09:29:17.662Z,81.87
2017-11-18T09:30:19.481Z,81.49
2017-11-18T09:31:21.373Z,81.40
2017-11-18T09:32:23.258Z,81.59
2017-11-18T09:33:25.147Z,81.21
2017-11-18T09:34:39.350Z,80.87
2017-11-18T09:35:41.211Z,80.58
2017-11-18T09:36:43.095Z,81.54
2017-11-18T09:37:44.976Z,81.16
2017-11-18T09:38:46.798Z,80.11
2017-11-18T09:39:48.957Z,79.63
2017-11-18T09:40:50.851Z,78.69
2017-11-18T09:41:52.746Z,78.25
2017-11-18T09:42:54.611Z,77.58
2017-11-18T09:44:09.175Z,77.87
2017-11-18T09:45:11.161Z,77.30
2017-11-18T09:46:13.148Z,76.82
2017-11-18T09:47:15.033Z,77.20
2017-11-18T09:48:17.290Z,76.44
2017-11-18T09:49:19.135Z,76.35
2017-11-18T09:50:21.021Z,76.06
2017-11-18T09:51:22.951Z,75.78
2017-11-18T09:52:25.257Z,75.59
2017-11-18T09:53:39.380Z,74.92
2017-11-18T09:54:41.265Z,74.82
2017-11-18T09:55:43.555Z,75.21
2017-11-18T09:56:45.457Z,75.02
2017-11-18T09:57:47.312Z,75.02
2017-11-18T09:58:49.466Z,75.02
2017-11-18T09:59:51.514Z,75.11
2017-11-18T10:00:53.497Z,75.21
2017-11-18T10:01:55.382Z,74.73
2017-11-18T10:03:09.574Z,74.73
2017-11-18T10:04:11.541Z,74.35
2017-11-18T10:05:13.392Z,74.16
2017-11-18T10:06:15.287Z,73.88
2017-11-18T10:07:17.108Z,74.35
2017-11-18T10:08:18.922Z,74.16
2017-11-18T10:09:20.808Z,74.26
2017-11-18T10:10:22.704Z,74.35
2017-11-18T10:11:24.667Z,74.44
2017-11-18T10:12:38.824Z,74.07
2017-11-18T10:13:40.710Z,74.26
2017-11-18T10:14:42.613Z,74.26
2017-11-18T10:15:44.501Z,74.63
2017-11-18T10:16:46.316Z,74.73
2017-11-18T10:17:48.156Z,74.54
2017-11-18T10:18:50.047Z,75.11
2017-11-18T10:19:51.966Z,75.07
2017-11-18T10:20:53.851Z,74.73
2017-11-18T10:22:08.505Z,74.98
2017-11-18T10:23:10.417Z,75.11
2017-11-18T10:24:12.745Z,74.41
2017-11-18T10:25:14.679Z,74.54
2017-11-18T10:26:16.499Z,74.69
2017-11-18T10:27:18.354Z,74.88
2017-11-18T10:28:20.212Z,74.60
2017-11-18T10:29:22.209Z,74.69
2017-11-18T10:30:24.093Z,74.60
2017-11-18T10:31:38.688Z,75.17
2017-11-18T10:32:40.922Z,75.26
2017-11-18T10:33:43.168Z,74.88
2017-11-18T10:34:45.100Z,74.22
2017-11-18T10:35:46.915Z,74.12
2017-11-18T10:36:48.731Z,74.35
2017-11-18T10:37:50.615Z,74.35
2017-11-18T10:38:52.502Z,74.26
2017-11-18T10:39:54.722Z,74.16
2017-11-18T10:41:08.843Z,73.88
2017-11-18T10:42:10.728Z,74.16
2017-11-18T10:43:12.616Z,73.59
2017-11-18T10:44:14.527Z,73.78
2017-11-18T10:45:16.816Z,73.78
2017-11-18T10:46:18.614Z,73.21
2017-11-18T10:47:20.436Z,72.83
2017-11-18T10:48:22.259Z,72.26
2017-11-18T10:49:24.085Z,72.16
2017-11-18T10:50:38.238Z,72.07
2017-11-18T10:51:40.124Z,72.16
2017-11-18T10:52:42.009Z,72.16
2017-11-18T10:53:43.894Z,72.07
2017-11-18T10:54:45.735Z,72.55
2017-11-18T10:55:47.549Z,73.02
2017-11-18T10:56:49.441Z,72.74
2017-11-18T10:57:51.326Z,72.64
2017-11-18T10:58:53.212Z,72.83
2017-11-18T11:00:07.742Z,73.21
2017-11-18T11:01:09.593Z,72.92
2017-11-18T11:02:11.477Z,73.02
2017-11-18T11:03:13.361Z,73.30
2017-11-18T11:04:15.493Z,73.21
2017-11-18T11:05:17.316Z,73.40
2017-11-18T11:06:19.209Z,72.74
2017-11-18T11:07:21.414Z,72.83
2017-11-18T11:08:23.602Z,72.83
2017-11-18T11:09:37.778Z,73.02
2017-11-18T11:10:39.666Z,73.21
2017-11-18T11:11:41.549Z,73.49
2017-11-18T11:12:43.437Z,73.30
2017-11-18T11:13:45.253Z,73.30
2017-11-18T11:14:47.071Z,73.21
2017-11-18T11:15:48.957Z,73.21
2017-11-18T11:16:50.849Z,73.88
2017-11-18T11:17:52.729Z,73.49
2017-11-18T11:19:06.886Z,73.65
2017-11-18T11:20:08.771Z,74.12
2017-11-18T11:21:10.655Z,73.93
2017-11-18T11:22:12.569Z,74.31
2017-11-18T11:23:14.388Z,74.51
2017-11-18T11:24:16.517Z,74.98
2017-11-18T11:25:18.390Z,75.23
2017-11-18T11:26:20.276Z,75.36
2017-11-18T11:27:22.163Z,75.04
2017-11-18T11:28:36.666Z,75.07
2017-11-18T11:29:38.571Z,75.17
2017-11-18T11:30:40.455Z,75.36
2017-11-18T11:31:42.337Z,75.07
2017-11-18T11:32:44.157Z,75.17
2017-11-18T11:33:45.977Z,75.45
2017-11-18T11:34:47.863Z,75.45
2017-11-18T11:35:49.749Z,75.45
2017-11-18T11:36:51.633Z,75.84
2017-11-18T11:38:05.791Z,75.74
2017-11-18T11:39:07.674Z,75.55
2017-11-18T11:40:09.558Z,76.12
2017-11-18T11:41:11.441Z,76.03
2017-11-18T11:42:13.261Z,76.03
2017-11-18T11:43:15.083Z,76.12
2017-11-18T11:44:17.004Z,75.55
2017-11-18T11:45:18.873Z,75.93
2017-11-18T11:46:20.769Z,75.84
2017-11-18T11:47:34.918Z,75.36
2017-11-18T11:48:36.803Z,75.84
2017-11-18T11:49:38.686Z,74.98
2017-11-18T11:50:40.572Z,74.98
2017-11-18T11:51:42.390Z,75.26
2017-11-18T11:52:44.213Z,75.84
2017-11-18T11:53:46.093Z,75.36
2017-11-18T11:54:47.977Z,75.36
2017-11-18T11:55:49.862Z,75.26
2017-11-18T11:57:04.069Z,74.88
2017-11-18T11:58:05.978Z,74.98
2017-11-18T11:59:07.843Z,75.07
2017-11-18T12:00:09.726Z,75.36
2017-11-18T12:01:11.545Z,75.17
2017-11-18T12:02:13.363Z,75.45
2017-11-18T12:03:15.251Z,75.07
2017-11-18T12:04:17.146Z,75.45
2017-11-18T12:05:19.031Z,75.45
2017-11-18T12:06:33.182Z,74.88
2017-11-18T12:07:35.067Z,75.07
2017-11-18T12:08:37.027Z,75.17
2017-11-18T12:09:38.927Z,75.26
2017-11-18T12:10:40.749Z,75.36
2017-11-18T12:11:42.599Z,75.45
2017-11-18T12:12:44.836Z,75.26
2017-11-18T12:13:46.736Z,74.88
2017-11-18T12:14:48.624Z,74.98
2017-11-18T12:16:02.782Z,75.17
2017-11-18T12:17:04.665Z,74.98
2017-11-18T12:18:06.550Z,75.07
2017-11-18T12:19:08.434Z,75.07
2017-11-18T12:20:10.256Z,75.59
2017-11-18T12:21:12.085Z,75.02
2017-11-18T12:22:13.972Z,75.11
2017-11-18T12:23:15.857Z,75.02
2017-11-18T12:24:17.746Z,75.30
2017-11-18T12:25:31.953Z,74.73
2017-11-18T12:26:33.835Z,74.82
2017-11-18T12:27:35.719Z,75.11
2017-11-18T12:28:37.606Z,74.73
2017-11-18T12:29:39.425Z,74.73
2017-11-18T12:30:41.250Z,74.54
2017-11-18T12:31:43.138Z,74.82
2017-11-18T12:32:45.025Z,74.73
2017-11-18T12:33:46.918Z,75.02
2017-11-18T12:35:01.070Z,75.02
2017-11-18T12:36:02.959Z,74.82
2017-11-18T12:37:04.849Z,75.36
2017-11-18T12:38:06.735Z,75.17
2017-11-18T12:39:08.554Z,74.98
2017-11-18T12:40:10.374Z,75.45
2017-11-18T12:41:12.270Z,75.55
2017-11-18T12:42:14.165Z,76.12
2017-11-18T12:43:16.053Z,76.21
2017-11-18T12:44:30.221Z,75.93
2017-11-18T12:45:32.109Z,75.84
2017-11-18T12:46:33.992Z,76.31
2017-11-18T12:47:35.871Z,76.03
2017-11-18T12:48:37.689Z,76.12
2017-11-18T12:49:39.511Z,76.69
2017-11-18T12:50:41.400Z,76.93
2017-11-18T12:51:43.284Z,77.55
2017-11-18T12:52:45.171Z,77.51
2017-11-18T12:53:59.324Z,77.79
2017-11-18T12:55:01.216Z,77.60
2017-11-18T12:56:03.099Z,77.51
2017-11-18T12:57:04.984Z,77.79
2017-11-18T12:58:06.809Z,78.27
2017-11-18T12:59:08.627Z,78.08
2017-11-18T13:00:10.477Z,78.17
2017-11-18T13:01:12.362Z,78.08
2017-11-18T13:02:14.245Z,77.98
2017-11-18T13:03:28.401Z,78.36
2017-11-18T13:04:30.281Z,78.21
2017-11-18T13:05:32.167Z,78.27
2017-11-18T13:06:34.043Z,78.27
2017-11-18T13:07:35.861Z,78.27
2017-11-18T13:08:37.684Z,78.08
2017-11-18T13:09:39.571Z,78.64
2017-11-18T13:10:41.452Z,78.55
2017-11-18T13:11:43.334Z,78.74
2017-11-18T13:12:57.489Z,78.83
2017-11-18T13:13:59.371Z,78.74
2017-11-18T13:15:01.309Z,78.74
2017-11-18T13:16:03.195Z,78.64
2017-11-18T13:17:05.392Z,78.45
2017-11-18T13:18:07.360Z,78.74
2017-11-18T13:19:09.319Z,78.55
2017-11-18T13:20:11.199Z,78.45
2017-11-18T13:21:13.082Z,78.64
2017-11-18T13:22:27.419Z,78.55
2017-11-18T13:23:29.868Z,78.45
2017-11-18T13:24:31.712Z,78.55
2017-11-18T13:25:33.595Z,78.64
2017-11-18T13:26:35.786Z,78.83
2017-11-18T13:27:37.729Z,78.93
2017-11-18T13:28:40.303Z,78.64
2017-11-18T13:29:42.149Z,79.22
2017-11-18T13:30:44.035Z,78.83
2017-11-18T13:31:58.190Z,79.22
2017-11-18T13:33:00.159Z,79.03
2017-11-18T13:34:02.041Z,79.12